Time;durP1;ratioP1;P1;durP2;ratioP2;P2;SDS_P1;SDS_P2;PMS_P1;PMS_P2;Temp;Humidity;BMP_temperature;BMP_pressure;BME280_temperature;BME280_humidity;BME280_pressure;Samples;Min_cycle;Max_cycle;Signal;HPM_P1;HPM_P2
2021/05/12 00:01:51;;;;;;;8.55;3.03;;;;;;;;;;5031232;28;20024;-74
2021/05/12 00:04:17;;;;;;;10.40;3.47;;;;;;;;;;5029745;28;20032;-74
2021/05/12 00:06:43;;;;;;;10.40;3.25;;;;;;;;;;5026933;28;20390;-74
2021/05/12 00:09:09;;;;;;;6.57;3.70;;;;;;;;;;5024651;28;20096;-73
2021/05/12 00:11:36;;;;;;;13.68;3.33;;;;;;;;;;5026501;28;20025;-74
2021/05/12 00:14:02;;;;;;;10.05;3.20;;;;;;;;;;5022522;28;20486;-73
2021/05/12 00:16:28;;;;;;;8.32;3.38;;;;;;;;;;5025008;28;20034;-73
2021/05/12 00:18:54;;;;;;;6.90;2.95;;;;;;;;;;5028405;28;20044;-73
2021/05/12 00:23:59;;;;;;;6.88;3.13;;;;;;;;;;5033193;28;20099;-73
2021/05/12 00:26:26;;;;;;;7.15;3.15;;;;;;;;;;5027430;28;20017;-74
2021/05/12 00:28:54;;;;;;;7.18;3.00;;;;;;;;;;5032878;28;20053;-72
2021/05/12 00:31:20;;;;;;;11.88;3.45;;;;;;;;;;5030550;28;20144;-73
2021/05/12 00:33:47;;;;;;;7.88;2.90;;;;;;;;;;5029078;28;20571;-73
2021/05/12 00:36:13;;;;;;;5.00;2.67;;;;;;;;;;5030599;28;20028;-73
2021/05/12 00:38:41;;;;;;;6.57;2.88;;;;;;;;;;5022785;28;20052;-73
2021/05/12 00:41:07;;;;;;;7.55;3.20;;;;;;;;;;5026415;28;20809;-73
2021/05/12 00:43:33;;;;;;;8.38;3.67;;;;;;;;;;5027362;28;20037;-74
2021/05/12 00:45:59;;;;;;;7.05;2.63;;;;;;;;;;5033159;28;20035;-73
2021/05/12 00:48:27;;;;;;;6.85;2.45;;;;;;;;;;5030233;28;20051;-73
2021/05/12 00:50:53;;;;;;;5.03;2.85;;;;;;;;;;5036447;28;20060;-74
2021/05/12 00:53:19;;;;;;;4.07;2.50;;;;;;;;;;5025136;28;20132;-74
2021/05/12 00:55:46;;;;;;;6.05;2.55;;;;;;;;;;5031767;28;20449;-74
2021/05/12 00:58:12;;;;;;;8.05;2.55;;;;;;;;;;5030233;28;20037;-73
2021/05/12 01:00:38;;;;;;;7.90;2.88;;;;;;;;;;5032879;28;20025;-73
2021/05/12 01:03:04;;;;;;;7.22;2.45;;;;;;;;;;5031785;28;20021;-75
2021/05/12 01:05:41;;;;;;;5.97;2.67;;;;;;;;;;5021303;28;20033;-73
2021/05/12 01:08:07;;;;;;;33.22;3.50;;;;;;;;;;5031436;28;20028;-74
2021/05/12 01:10:34;;;;;;;5.43;2.90;;;;;;;;;;5027183;28;20033;-74
2021/05/12 01:13:02;;;;;;;6.00;2.47;;;;;;;;;;5021659;28;20044;-74
2021/05/12 01:15:29;;;;;;;7.22;2.60;;;;;;;;;;5030298;28;20099;-74
2021/05/12 01:18:11;;;;;;;4.35;2.42;;;;;;;;;;5029921;28;20033;-73
2021/05/12 01:20:53;;;;;;;12.77;2.65;;;;;;;;;;5031401;28;20428;-73
2021/05/12 01:23:21;;;;;;;5.65;2.30;;;;;;;;;;5028903;28;20088;-73
2021/05/12 01:25:48;;;;;;;9.38;2.60;;;;;;;;;;5029420;28;20036;-73
2021/05/12 01:28:14;;;;;;;5.97;2.92;;;;;;;;;;5033186;28;20072;-73
2021/05/12 01:30:41;;;;;;;10.00;2.72;;;;;;;;;;5022859;28;20053;-74
2021/05/12 01:33:07;;;;;;;5.68;2.67;;;;;;;;;;5028189;28;20041;-73
2021/05/12 01:35:36;;;;;;;5.32;2.67;;;;;;;;;;5031289;28;20401;-73
2021/05/12 01:38:02;;;;;;;4.60;2.60;;;;;;;;;;5033132;28;20118;-73
2021/05/12 01:40:28;;;;;;;8.70;2.90;;;;;;;;;;5030099;28;20014;-74
2021/05/12 01:42:54;;;;;;;7.78;2.78;;;;;;;;;;5022554;28;20032;-74
2021/05/12 01:45:20;;;;;;;6.05;2.50;;;;;;;;;;5030525;28;20028;-74
2021/05/12 01:47:46;;;;;;;4.40;2.67;;;;;;;;;;5033447;28;20059;-73
2021/05/12 01:50:12;;;;;;;5.93;2.55;;;;;;;;;;5020588;28;20026;-74
2021/05/12 01:52:43;;;;;;;6.18;2.80;;;;;;;;;;5025031;28;20120;-74
2021/05/12 01:55:10;;;;;;;8.70;2.40;;;;;;;;;;5021198;28;20112;-74
2021/05/12 01:57:36;;;;;;;10.05;2.65;;;;;;;;;;5034153;28;20052;-74
2021/05/12 02:00:04;;;;;;;4.07;2.50;;;;;;;;;;5034073;28;20489;-74
2021/05/12 02:02:32;;;;;;;3.42;2.45;;;;;;;;;;5025292;28;20030;-74
2021/05/12 02:04:58;;;;;;;3.90;2.38;;;;;;;;;;5028271;28;20026;-74
2021/05/12 02:07:24;;;;;;;4.50;2.55;;;;;;;;;;5026881;28;20504;-74
2021/05/12 02:09:53;;;;;;;6.25;2.50;;;;;;;;;;5032205;28;20410;-74
2021/05/12 02:12:19;;;;;;;8.20;2.60;;;;;;;;;;5015785;28;20037;-74
2021/05/12 02:14:45;;;;;;;8.57;2.45;;;;;;;;;;5033773;28;20021;-73
2021/05/12 02:17:11;;;;;;;6.80;2.58;;;;;;;;;;5032751;28;20085;-74
2021/05/12 02:19:37;;;;;;;7.07;2.45;;;;;;;;;;5034748;28;20360;-74
2021/05/12 02:22:03;;;;;;;7.60;2.65;;;;;;;;;;5032745;28;20018;-74
2021/05/12 02:24:29;;;;;;;4.78;2.45;;;;;;;;;;5033568;28;20360;-74
2021/05/12 02:27:00;;;;;;;5.38;2.40;;;;;;;;;;5032510;28;20076;-73
2021/05/12 02:29:26;;;;;;;4.82;2.47;;;;;;;;;;5026348;28;20483;-73
2021/05/12 02:31:52;;;;;;;5.60;2.70;;;;;;;;;;5025002;28;20057;-74
2021/05/12 02:34:18;;;;;;;3.50;2.28;;;;;;;;;;5016982;28;20100;-73
2021/05/12 02:36:44;;;;;;;7.65;2.50;;;;;;;;;;5030858;28;20080;-73
2021/05/12 02:39:10;;;;;;;7.65;2.92;;;;;;;;;;5028173;28;20096;-74
2021/05/12 02:41:36;;;;;;;4.53;2.50;;;;;;;;;;5030846;28;20033;-74
2021/05/12 02:44:02;;;;;;;4.85;2.25;;;;;;;;;;5028495;28;20021;-74
2021/05/12 02:46:28;;;;;;;6.20;2.42;;;;;;;;;;5037804;28;20037;-74
2021/05/12 02:48:54;;;;;;;6.55;3.00;;;;;;;;;;5030254;28;20092;-74
2021/05/12 02:51:20;;;;;;;10.75;3.08;;;;;;;;;;5030406;28;20037;-74
2021/05/12 02:53:47;;;;;;;8.02;2.70;;;;;;;;;;5035563;28;20024;-73
2021/05/12 02:56:13;;;;;;;5.20;2.63;;;;;;;;;;5036096;28;20072;-73
2021/05/12 02:58:39;;;;;;;7.38;2.80;;;;;;;;;;5033678;28;20472;-73
2021/05/12 03:01:05;;;;;;;4.55;2.38;;;;;;;;;;5036214;28;20105;-73
2021/05/12 03:03:31;;;;;;;4.80;2.40;;;;;;;;;;5029965;28;20033;-73
2021/05/12 03:05:57;;;;;;;6.43;2.60;;;;;;;;;;5037524;28;20025;-74
2021/05/12 03:08:23;;;;;;;9.27;3.05;;;;;;;;;;5034921;28;20029;-74
2021/05/12 03:10:49;;;;;;;7.00;2.60;;;;;;;;;;5025041;28;20049;-73
2021/05/12 03:13:15;;;;;;;4.32;2.70;;;;;;;;;;5038049;28;20037;-72
2021/05/12 03:15:41;;;;;;;8.88;2.65;;;;;;;;;;5025884;28;20042;-73
2021/05/12 03:18:08;;;;;;;5.07;2.42;;;;;;;;;;5019442;28;20099;-74
2021/05/12 03:20:34;;;;;;;7.40;2.72;;;;;;;;;;5035315;28;20018;-73
2021/05/12 03:23:02;;;;;;;7.80;2.67;;;;;;;;;;5032151;28;20030;-73
2021/05/12 03:25:28;;;;;;;6.68;2.80;;;;;;;;;;5031461;28;20117;-74
2021/05/12 03:27:54;;;;;;;5.78;3.00;;;;;;;;;;5036202;28;20026;-74
2021/05/12 03:30:22;;;;;;;10.80;3.50;;;;;;;;;;5034110;28;20386;-74
2021/05/12 03:32:49;;;;;;;9.25;2.50;;;;;;;;;;5035873;28;20079;-74
2021/05/12 03:35:15;;;;;;;4.90;3.00;;;;;;;;;;5036008;28;20475;-74
2021/05/12 03:37:41;;;;;;;9.82;2.92;;;;;;;;;;5036699;28;20052;-74
2021/05/12 03:40:08;;;;;;;4.95;2.85;;;;;;;;;;5036587;28;20022;-74
2021/05/12 03:42:34;;;;;;;7.63;2.95;;;;;;;;;;5021770;28;20037;-74
2021/05/12 03:45:00;;;;;;;8.90;3.03;;;;;;;;;;5032526;28;20034;-75
2021/05/12 03:47:26;;;;;;;9.40;3.10;;;;;;;;;;5028274;28;20407;-74
2021/05/12 03:49:52;;;;;;;7.25;2.90;;;;;;;;;;5018702;28;20475;-74
2021/05/12 03:52:18;;;;;;;9.13;3.15;;;;;;;;;;5034686;28;20033;-73
2021/05/12 03:54:47;;;;;;;11.15;3.30;;;;;;;;;;5019255;28;20029;-74
2021/05/12 03:57:13;;;;;;;27.00;4.93;;;;;;;;;;5048913;28;20108;-74
2021/05/12 03:59:39;;;;;;;9.15;3.20;;;;;;;;;;5037582;28;20052;-73
2021/05/12 04:02:06;;;;;;;6.82;2.83;;;;;;;;;;5037372;28;20021;-74
2021/05/12 04:04:32;;;;;;;4.60;2.72;;;;;;;;;;5035776;28;20433;-75
2021/05/12 04:06:58;;;;;;;9.38;2.78;;;;;;;;;;5029329;28;20080;-74
2021/05/12 04:09:24;;;;;;;12.07;3.70;;;;;;;;;;5033123;28;20033;-74
2021/05/12 04:11:50;;;;;;;9.50;3.35;;;;;;;;;;5030200;28;20041;-74
2021/05/12 04:14:16;;;;;;;9.65;3.22;;;;;;;;;;5029803;28;20157;-73
2021/05/12 04:16:42;;;;;;;5.43;3.00;;;;;;;;;;5030904;28;20551;-73
2021/05/12 04:19:08;;;;;;;11.05;3.28;;;;;;;;;;5031788;28;20033;-73
2021/05/12 04:21:34;;;;;;;6.68;2.97;;;;;;;;;;5030828;28;20089;-74
2021/05/12 04:24:00;;;;;;;8.88;3.40;;;;;;;;;;5034761;28;20115;-74
2021/05/12 04:26:26;;;;;;;9.48;2.95;;;;;;;;;;5016502;28;20033;-74
2021/05/12 04:28:52;;;;;;;6.82;2.80;;;;;;;;;;5033943;28;20040;-74
2021/05/12 04:31:20;;;;;;;7.80;3.00;;;;;;;;;;5031287;28;20034;-78
2021/05/12 04:33:46;;;;;;;7.50;3.28;;;;;;;;;;5037542;28;20564;-76
2021/05/12 04:36:12;;;;;;;7.63;2.95;;;;;;;;;;5026604;28;20060;-76
2021/05/12 04:38:38;;;;;;;7.50;3.03;;;;;;;;;;5031386;28;20041;-73
2021/05/12 04:41:04;;;;;;;8.63;3.35;;;;;;;;;;5030158;28;20151;-79
2021/05/12 04:43:30;;;;;;;10.30;3.20;;;;;;;;;;5033276;28;20060;-75
2021/05/12 04:45:56;;;;;;;4.60;2.60;;;;;;;;;;5032635;28;20033;-74
2021/05/12 04:48:22;;;;;;;10.68;2.90;;;;;;;;;;5022032;28;20030;-78
2021/05/12 04:50:48;;;;;;;9.63;3.15;;;;;;;;;;5015720;28;20048;-76
2021/05/12 04:53:14;;;;;;;5.85;2.78;;;;;;;;;;5024036;28;20033;-82
2021/05/12 04:55:45;;;;;;;10.77;3.38;;;;;;;;;;5004867;28;20044;-73
2021/05/12 04:58:11;;;;;;;7.22;3.35;;;;;;;;;;5033281;28;20156;-74
2021/05/12 05:00:37;;;;;;;8.15;3.45;;;;;;;;;;5029403;28;20018;-74
2021/05/12 05:03:06;;;;;;;10.10;3.15;;;;;;;;;;5039770;28;20045;-79
2021/05/12 05:05:33;;;;;;;16.95;4.88;;;;;;;;;;5030002;28;20108;-75
2021/05/12 05:07:59;;;;;;;11.80;3.38;;;;;;;;;;5029593;28;20026;-75
2021/05/12 05:10:25;;;;;;;9.95;3.47;;;;;;;;;;5031406;28;20021;-73
2021/05/12 05:12:51;;;;;;;9.02;3.58;;;;;;;;;;5032954;28;20041;-73
2021/05/12 05:15:17;;;;;;;7.53;3.30;;;;;;;;;;5028611;28;20100;-74
2021/05/12 05:17:44;;;;;;;14.35;3.75;;;;;;;;;;5036100;28;20030;-72
2021/05/12 05:20:11;;;;;;;13.40;3.80;;;;;;;;;;5036262;28;20352;-74
2021/05/12 05:22:39;;;;;;;10.05;4.03;;;;;;;;;;5042823;28;20071;-80
2021/05/12 05:25:05;;;;;;;9.93;4.15;;;;;;;;;;5030513;28;20022;-76
2021/05/12 05:27:31;;;;;;;10.88;4.15;;;;;;;;;;5031214;28;20120;-75
2021/05/12 05:29:57;;;;;;;8.50;3.65;;;;;;;;;;5019250;28;20538;-77
2021/05/12 05:32:24;;;;;;;8.98;3.53;;;;;;;;;;5026456;28;20041;-78
2021/05/12 05:34:50;;;;;;;10.63;3.53;;;;;;;;;;5031695;28;20376;-73
2021/05/12 05:37:16;;;;;;;9.07;3.53;;;;;;;;;;5030402;28;20517;-74
2021/05/12 05:39:42;;;;;;;9.60;3.42;;;;;;;;;;5031360;28;20033;-75
2021/05/12 05:42:10;;;;;;;7.35;3.33;;;;;;;;;;5031530;28;20391;-75
2021/05/12 05:44:37;;;;;;;6.30;3.20;;;;;;;;;;5028774;28;20041;-72
2021/05/12 05:47:03;;;;;;;9.85;3.35;;;;;;;;;;5026649;28;20045;-79
2021/05/12 05:49:29;;;;;;;9.70;3.67;;;;;;;;;;5007130;28;20033;-80
2021/05/12 05:51:56;;;;;;;11.30;3.67;;;;;;;;;;5030407;28;20373;-81
2021/05/12 05:54:22;;;;;;;8.98;3.60;;;;;;;;;;5028342;28;20025;-77
2021/05/12 05:56:48;;;;;;;7.68;3.50;;;;;;;;;;5031250;28;20030;-82
2021/05/12 05:59:15;;;;;;;6.65;3.47;;;;;;;;;;5027361;28;20032;-80
2021/05/12 06:01:41;;;;;;;11.32;3.45;;;;;;;;;;5024453;28;20018;-89
2021/05/12 06:04:08;;;;;;;12.27;3.67;;;;;;;;;;5032932;28;20072;-85
2021/05/12 06:06:34;;;;;;;16.38;3.90;;;;;;;;;;5030436;28;20068;-72
2021/05/12 06:09:00;;;;;;;15.60;4.25;;;;;;;;;;5028972;28;20061;-76
2021/05/12 06:11:27;;;;;;;10.77;3.88;;;;;;;;;;5029568;28;20065;-79
2021/05/12 06:13:53;;;;;;;8.50;3.63;;;;;;;;;;5023281;28;20529;-85
2021/05/12 06:16:19;;;;;;;9.20;3.67;;;;;;;;;;5028008;28;20037;-73
2021/05/12 06:18:45;;;;;;;10.20;4.05;;;;;;;;;;5032137;28;20030;-77
2021/05/12 06:21:14;;;;;;;9.15;3.88;;;;;;;;;;5034145;28;20104;-82
2021/05/12 06:23:41;;;;;;;10.70;3.65;;;;;;;;;;5032511;28;20036;-78
2021/05/12 06:26:15;;;;;;;13.55;4.38;;;;;;;;;;5033865;28;20045;-77
2021/05/12 06:28:41;;;;;;;9.10;3.95;;;;;;;;;;5033509;28;20026;-86
2021/05/12 06:31:08;;;;;;;11.13;4.13;;;;;;;;;;5031441;28;20028;-78
2021/05/12 06:33:36;;;;;;;8.52;3.60;;;;;;;;;;5030543;28;20033;-77
2021/05/12 06:36:02;;;;;;;7.50;3.72;;;;;;;;;;5029612;28;20542;-74
2021/05/12 06:38:28;;;;;;;8.75;3.65;;;;;;;;;;5036831;28;20155;-75
2021/05/12 06:40:54;;;;;;;10.40;4.30;;;;;;;;;;5032331;28;20025;-75
2021/05/12 06:43:20;;;;;;;8.15;3.90;;;;;;;;;;5036664;28;20108;-75
2021/05/12 06:45:46;;;;;;;9.43;3.70;;;;;;;;;;5036193;28;20112;-76
2021/05/12 06:48:12;;;;;;;12.00;3.70;;;;;;;;;;5025218;28;20025;-79
2021/05/12 06:50:38;;;;;;;9.15;3.90;;;;;;;;;;5033225;28;20025;-76
2021/05/12 06:53:04;;;;;;;7.55;3.67;;;;;;;;;;5037117;28;20434;-79
2021/05/12 06:55:30;;;;;;;10.85;3.60;;;;;;;;;;5032801;28;20032;-72
2021/05/12 06:57:56;;;;;;;11.50;4.20;;;;;;;;;;5032505;28;20026;-77
2021/05/12 07:00:23;;;;;;;8.30;3.97;;;;;;;;;;5034733;28;20025;-76
2021/05/12 07:02:49;;;;;;;15.30;4.22;;;;;;;;;;5036887;28;20028;-74
2021/05/12 07:05:15;;;;;;;7.53;4.25;;;;;;;;;;5042005;28;20026;-73
2021/05/12 07:07:44;;;;;;;11.23;3.95;;;;;;;;;;5032857;28;20017;-71
2021/05/12 07:10:11;;;;;;;9.65;4.47;;;;;;;;;;5040115;28;20034;-74
2021/05/12 07:12:39;;;;;;;12.18;4.50;;;;;;;;;;5037987;28;20037;-76
2021/05/12 07:15:07;;;;;;;11.05;4.28;;;;;;;;;;5026330;28;20036;-72
2021/05/12 07:17:33;;;;;;;10.13;4.70;;;;;;;;;;5026270;28;20021;-81
2021/05/12 07:19:59;;;;;;;11.43;4.40;;;;;;;;;;5039358;28;20025;-86
2021/05/12 07:22:25;;;;;;;9.25;4.18;;;;;;;;;;5033493;28;20053;-86
2021/05/12 07:24:52;;;;;;;8.45;4.18;;;;;;;;;;5032134;28;20041;-74
2021/05/12 07:27:18;;;;;;;11.20;4.40;;;;;;;;;;5030023;28;20075;-76
2021/05/12 07:29:44;;;;;;;11.88;4.38;;;;;;;;;;5037255;28;20060;-75
2021/05/12 07:32:10;;;;;;;10.30;4.47;;;;;;;;;;5031418;28;20049;-73
2021/05/12 07:34:39;;;;;;;9.20;5.10;;;;;;;;;;5031759;28;20041;-77
2021/05/12 07:37:06;;;;;;;15.02;6.93;;;;;;;;;;5023208;28;20171;-86
2021/05/12 07:39:36;;;;;;;8.88;4.82;;;;;;;;;;5039683;28;20044;-78
2021/05/12 07:42:05;;;;;;;9.48;4.28;;;;;;;;;;5035706;28;20034;-76
2021/05/12 07:44:31;;;;;;;7.78;4.03;;;;;;;;;;5034269;28;20079;-84
2021/05/12 07:46:57;;;;;;;12.38;4.50;;;;;;;;;;5028129;28;20065;-84
2021/05/12 07:49:23;;;;;;;8.07;4.00;;;;;;;;;;5031756;28;20482;-79
2021/05/12 07:51:49;;;;;;;10.52;4.05;;;;;;;;;;5007653;28;20053;-84
2021/05/12 07:54:15;;;;;;;7.53;4.05;;;;;;;;;;5036024;28;20513;-81
2021/05/12 07:56:42;;;;;;;14.75;5.70;;;;;;;;;;5041168;28;20025;-83
2021/05/12 07:59:08;;;;;;;9.45;4.13;;;;;;;;;;5034576;28;20029;-79
2021/05/12 08:01:43;;;;;;;9.73;4.63;;;;;;;;;;5043927;28;20052;-77
2021/05/12 08:04:09;;;;;;;11.32;4.55;;;;;;;;;;5031873;28;20021;-80
2021/05/12 08:06:35;;;;;;;15.07;4.75;;;;;;;;;;5028794;28;20072;-75
2021/05/12 08:09:02;;;;;;;10.68;4.05;;;;;;;;;;5032223;28;20483;-75
2021/05/12 08:11:33;;;;;;;7.82;3.88;;;;;;;;;;5030395;28;20061;-74
2021/05/12 08:13:59;;;;;;;10.65;4.63;;;;;;;;;;5031859;28;20072;-75
2021/05/12 08:16:25;;;;;;;10.77;4.30;;;;;;;;;;5043454;28;20029;-76
2021/05/12 08:18:54;;;;;;;11.07;3.67;;;;;;;;;;5034657;28;20083;-76
2021/05/12 08:21:20;;;;;;;12.40;4.28;;;;;;;;;;5035235;28;20521;-75
2021/05/12 08:23:50;;;;;;;12.50;4.68;;;;;;;;;;5034050;28;20033;-76
2021/05/12 08:26:16;;;;;;;11.88;4.43;;;;;;;;;;5034706;28;20124;-77
2021/05/12 08:28:42;;;;;;;10.13;4.68;;;;;;;;;;5037221;28;20028;-75
2021/05/12 08:31:09;;;;;;;11.68;4.60;;;;;;;;;;5030848;28;20025;-89
2021/05/12 08:33:35;;;;;;;9.07;4.63;;;;;;;;;;5035820;28;20083;-79
2021/05/12 08:36:01;;;;;;;10.88;4.97;;;;;;;;;;5030918;28;20036;-74
2021/05/12 08:38:28;;;;;;;8.73;4.45;;;;;;;;;;5034779;28;20029;-89
2021/05/12 08:40:56;;;;;;;8.68;4.20;;;;;;;;;;5012486;28;20021;-84
2021/05/12 08:43:24;;;;;;;11.95;4.75;;;;;;;;;;5034247;28;20025;-83
2021/05/12 08:45:51;;;;;;;13.13;4.63;;;;;;;;;;5028670;28;20037;-86
2021/05/12 08:48:18;;;;;;;9.00;4.88;;;;;;;;;;5031697;28;20483;-75
2021/05/12 08:50:45;;;;;;;7.35;4.05;;;;;;;;;;5030505;28;20071;-76
2021/05/12 08:53:11;;;;;;;10.18;4.35;;;;;;;;;;5029816;28;20044;-74
2021/05/12 08:55:38;;;;;;;7.95;4.22;;;;;;;;;;5034075;28;20025;-75
2021/05/12 08:58:04;;;;;;;12.57;4.55;;;;;;;;;;5029631;28;20471;-75
2021/05/12 09:00:30;;;;;;;9.68;4.07;;;;;;;;;;5030551;28;20554;-75
2021/05/12 09:02:58;;;;;;;10.77;4.40;;;;;;;;;;5032295;28;20033;-77
2021/05/12 09:05:25;;;;;;;9.80;4.68;;;;;;;;;;5033986;28;20408;-75
2021/05/12 09:07:51;;;;;;;14.55;4.68;;;;;;;;;;5031134;28;20104;-76
2021/05/12 09:10:19;;;;;;;11.95;4.75;;;;;;;;;;5027251;28;20032;-75
2021/05/12 09:12:51;;;;;;;13.30;4.60;;;;;;;;;;5030369;28;20040;-75
2021/05/12 09:15:19;;;;;;;8.52;4.57;;;;;;;;;;5025870;28;20487;-72
2021/05/12 09:17:55;;;;;;;11.10;4.57;;;;;;;;;;5031282;28;20557;-71
2021/05/12 09:20:22;;;;;;;8.45;4.60;;;;;;;;;;5018066;28;20041;-76
2021/05/12 09:23:09;;;;;;;14.43;4.85;;;;;;;;;;5033988;28;20104;-75
2021/05/12 09:25:35;;;;;;;8.70;4.40;;;;;;;;;;5029214;28;20029;-75
2021/05/12 09:28:09;;;;;;;12.98;4.47;;;;;;;;;;5031927;28;20481;-79
2021/05/12 09:30:38;;;;;;;;;;;;;;;;;;5037557;28;20029;-78
2021/05/12 09:33:08;;;;;;;11.70;4.15;;;;;;;;;;5030999;28;19917;-76
2021/05/12 09:35:44;;;;;;;10.02;3.92;;;;;;;;;;5030372;28;20056;-77
2021/05/12 09:38:37;;;;;;;9.90;4.55;;;;;;;;;;5030741;28;20084;-76
2021/05/12 09:41:03;;;;;;;18.30;4.65;;;;;;;;;;5030118;28;20247;-77
2021/05/12 09:43:29;;;;;;;10.40;4.00;;;;;;;;;;5029727;28;20017;-76
2021/05/12 09:46:16;;;;;;;10.60;4.07;;;;;;;;;;5029440;28;20026;-76
2021/05/12 09:49:08;;;;;;;8.50;3.88;;;;;;;;;;5019652;28;20410;-77
2021/05/12 09:51:35;;;;;;;9.38;3.78;;;;;;;;;;5018284;28;20049;-77
2021/05/12 09:54:03;;;;;;;11.82;4.35;;;;;;;;;;5031716;28;20125;-75
2021/05/12 09:56:56;;;;;;;12.65;4.15;;;;;;;;;;5032922;28;20039;-73
2021/05/12 09:59:26;;;;;;;10.20;3.67;;;;;;;;;;5031096;28;20471;-70
2021/05/12 10:01:56;;;;;;;8.70;3.78;;;;;;;;;;5029583;28;20141;-77
2021/05/12 10:04:46;;;;;;;7.68;3.30;;;;;;;;;;5035585;28;20549;-78
2021/05/12 10:07:21;;;;;;;8.25;3.35;;;;;;;;;;5029398;28;20025;-78
2021/05/12 10:09:50;;;;;;;7.40;3.53;;;;;;;;;;5034816;28;20036;-81
2021/05/12 10:12:23;;;;;;;8.55;3.22;;;;;;;;;;5035995;28;20025;-76
2021/05/12 10:14:50;;;;;;;10.97;3.40;;;;;;;;;;5035011;28;20045;-78
2021/05/12 10:17:18;;;;;;;8.63;3.20;;;;;;;;;;5034262;28;20048;-76
2021/05/12 10:19:45;;;;;;;10.23;3.08;;;;;;;;;;5037479;28;20036;-75
2021/05/12 10:22:12;;;;;;;7.68;3.22;;;;;;;;;;5039313;28;20022;-73
2021/05/12 10:24:40;;;;;;;6.28;2.90;;;;;;;;;;5022820;28;20037;-79
2021/05/12 10:27:10;;;;;;;9.23;2.83;;;;;;;;;;5036208;28;20060;-78
2021/05/12 10:29:38;;;;;;;12.50;3.55;;;;;;;;;;5032170;28;20375;-73
2021/05/12 10:32:23;;;;;;;7.88;3.10;;;;;;;;;;5034768;28;20030;-83
2021/05/12 10:34:59;;;;;;;12.30;3.40;;;;;;;;;;5031181;28;20045;-79
2021/05/12 10:37:26;;;;;;;6.03;2.90;;;;;;;;;;5031601;28;20047;-76
2021/05/12 10:39:53;;;;;;;9.15;3.22;;;;;;;;;;5035275;28;20025;-79
2021/05/12 10:42:38;;;;;;;6.53;2.97;;;;;;;;;;5029936;28;20021;-86
2021/05/12 10:45:05;;;;;;;9.98;2.75;;;;;;;;;;5028844;28;20042;-86
2021/05/12 10:47:37;;;;;;;9.10;3.10;;;;;;;;;;5014356;28;20380;-87
2021/05/12 10:50:04;;;;;;;6.30;2.85;;;;;;;;;;5033695;28;20044;-87
2021/05/12 10:52:30;;;;;;;7.63;3.00;;;;;;;;;;5010686;28;20428;-77
2021/05/12 10:54:57;;;;;;;9.43;2.75;;;;;;;;;;5027299;28;20037;-80
2021/05/12 10:57:49;;;;;;;9.52;3.28;;;;;;;;;;5031810;28;20416;-80
2021/05/12 11:00:17;;;;;;;7.57;3.10;;;;;;;;;;5012977;28;20396;-77
2021/05/12 11:03:03;;;;;;;8.75;3.10;;;;;;;;;;5032095;28;20041;-77
2021/05/12 11:06:05;;;;;;;5.80;2.80;;;;;;;;;;5036343;28;20033;-78
2021/05/12 11:08:33;;;;;;;9.27;2.80;;;;;;;;;;4995361;28;20042;-77
2021/05/12 11:11:00;;;;;;;10.50;2.83;;;;;;;;;;5009803;28;20488;-81
2021/05/12 11:13:27;;;;;;;7.68;2.90;;;;;;;;;;5008436;28;20121;-80
2021/05/12 11:15:57;;;;;;;10.18;3.03;;;;;;;;;;5015115;28;20030;-81
2021/05/12 11:18:39;;;;;;;6.38;3.10;;;;;;;;;;5016479;28;20030;-78
2021/05/12 11:21:19;;;;;;;6.32;3.10;;;;;;;;;;5008156;28;20133;-79
2021/05/12 11:24:00;;;;;;;9.23;3.25;;;;;;;;;;5010089;28;20121;-85
2021/05/12 11:32:01;;;;;;;10.05;3.80;;;;;;;;;;5015564;28;20037;-74
2021/05/12 11:34:28;;;;;;;12.48;3.47;;;;;;;;;;4999519;28;20072;-74
2021/05/12 11:37:25;;;;;;;12.40;3.60;;;;;;;;;;5011628;28;20503;-73
2021/05/12 11:39:53;;;;;;;8.55;3.03;;;;;;;;;;5003511;28;20037;-73
2021/05/12 11:42:29;;;;;;;8.63;3.50;;;;;;;;;;5017707;28;20168;-76
2021/05/12 11:45:08;;;;;;;8.10;3.00;;;;;;;;;;5029462;28;20022;-75
2021/05/12 11:47:36;;;;;;;7.97;2.88;;;;;;;;;;5032458;28;20030;-74
2021/05/12 11:50:04;;;;;;;8.00;2.50;;;;;;;;;;5032049;28;20029;-76
2021/05/12 11:52:31;;;;;;;17.98;3.58;;;;;;;;;;5027665;28;20040;-86
2021/05/12 11:55:07;;;;;;;15.27;3.95;;;;;;;;;;5030914;28;20022;-78
2021/05/12 11:57:34;;;;;;;9.18;2.50;;;;;;;;;;5034546;28;20097;-83
2021/05/12 12:00:05;;;;;;;9.60;2.45;;;;;;;;;;5030654;28;20033;-78
2021/05/12 12:02:31;;;;;;;8.23;2.72;;;;;;;;;;5030599;28;20066;-86
2021/05/12 12:05:02;;;;;;;8.05;2.13;;;;;;;;;;5037752;28;20029;-85
2021/05/12 12:07:35;;;;;;;5.20;2.20;;;;;;;;;;5038792;28;20025;-79
2021/05/12 12:10:07;;;;;;;1.85;1.70;;;;;;;;;;5030398;28;20112;-76
2021/05/12 12:12:34;;;;;;;4.28;2.05;;;;;;;;;;5032992;28;20029;-76
2021/05/12 12:15:04;;;;;;;4.85;2.00;;;;;;;;;;5028544;28;20092;-79
2021/05/12 12:17:30;;;;;;;6.60;2.20;;;;;;;;;;5030898;28;20121;-77
2021/05/12 12:20:04;;;;;;;3.88;1.60;;;;;;;;;;5033143;28;20025;-76
2021/05/12 12:22:30;;;;;;;5.25;1.70;;;;;;;;;;5031045;28;20025;-73
2021/05/12 12:24:56;;;;;;;6.57;2.20;;;;;;;;;;5033037;28;20029;-76
2021/05/12 12:27:22;;;;;;;2.65;1.70;;;;;;;;;;5039881;28;20112;-77
2021/05/12 12:29:52;;;;;;;4.25;1.80;;;;;;;;;;5031576;28;20032;-76
2021/05/12 12:32:18;;;;;;;4.68;1.58;;;;;;;;;;5028875;28;20116;-74
2021/05/12 12:34:46;;;;;;;9.27;2.17;;;;;;;;;;5030420;28;20575;-73
2021/05/12 12:37:15;;;;;;;11.68;2.10;;;;;;;;;;5032707;28;20056;-73
2021/05/12 12:39:53;;;;;;;10.65;1.67;;;;;;;;;;5033261;28;20026;-74
2021/05/12 12:42:30;;;;;;;5.75;1.90;;;;;;;;;;5030588;28;20091;-76
2021/05/12 12:44:57;;;;;;;5.18;1.52;;;;;;;;;;5032769;28;20056;-77
2021/05/12 12:47:24;;;;;;;6.85;1.73;;;;;;;;;;5030482;28;20030;-87
2021/05/12 12:49:54;;;;;;;7.55;2.15;;;;;;;;;;5038627;28;20495;-79
2021/05/12 12:52:37;;;;;;;6.18;1.80;;;;;;;;;;5029659;28;20389;-78
2021/05/12 12:55:15;;;;;;;4.95;1.90;;;;;;;;;;5031293;28;20053;-78
2021/05/12 12:57:46;;;;;;;4.25;1.52;;;;;;;;;;5030606;28;20021;-73
2021/05/12 13:00:14;;;;;;;3.10;1.75;;;;;;;;;;5031573;28;20021;-74
2021/05/12 13:02:41;;;;;;;3.38;2.05;;;;;;;;;;5031131;28;20048;-74
2021/05/12 13:05:14;;;;;;;4.38;1.83;;;;;;;;;;5034048;28;20025;-73
2021/05/12 13:07:40;;;;;;;3.03;1.60;;;;;;;;;;5024353;28;20033;-76
2021/05/12 13:10:22;;;;;;;4.75;1.98;;;;;;;;;;5031828;28;20405;-75
2021/05/12 13:12:48;;;;;;;3.00;1.80;;;;;;;;;;5030503;28;20049;-76
2021/05/12 13:15:29;;;;;;;2.45;1.65;;;;;;;;;;5048936;28;20025;-78
2021/05/12 13:18:00;;;;;;;3.08;1.55;;;;;;;;;;5038592;28;20112;-75
2021/05/12 13:20:26;;;;;;;5.22;1.92;;;;;;;;;;5034651;28;20080;-75
2021/05/12 13:23:03;;;;;;;5.65;2.05;;;;;;;;;;5036141;28;20036;-77
2021/05/12 13:25:30;;;;;;;5.63;2.00;;;;;;;;;;5039417;28;20498;-76
2021/05/12 13:28:02;;;;;;;6.20;1.90;;;;;;;;;;5014836;28;20030;-79
2021/05/12 13:30:31;;;;;;;4.20;2.00;;;;;;;;;;5040997;28;20041;-78
2021/05/12 13:32:58;;;;;;;1.75;1.65;;;;;;;;;;5046892;28;20037;-75
2021/05/12 13:35:24;;;;;;;4.45;1.95;;;;;;;;;;5040711;28;20490;-78
2021/05/12 13:37:51;;;;;;;7.03;2.13;;;;;;;;;;5034890;28;20028;-76
2021/05/12 13:40:17;;;;;;;5.65;2.35;;;;;;;;;;5028306;28;20064;-75
2021/05/12 13:42:43;;;;;;;8.77;2.00;;;;;;;;;;5032996;28;20037;-74
2021/05/12 13:45:12;;;;;;;9.75;2.20;;;;;;;;;;5043062;28;20057;-73
2021/05/12 13:47:49;;;;;;;7.18;2.50;;;;;;;;;;5033463;28;20046;-75
2021/05/12 13:50:23;;;;;;;13.95;3.15;;;;;;;;;;5039235;28;20034;-75
2021/05/12 13:55:35;;;;;;;5.15;2.33;;;;;;;;;;5043722;28;19920;-76
2021/05/12 14:03:20;;;;;;;7.78;3.40;;;;;;;;;;5031944;28;20034;-75
2021/05/12 14:05:47;;;;;;;5.93;3.03;;;;;;;;;;5045424;28;20463;-75
2021/05/12 14:08:13;;;;;;;4.38;2.40;;;;;;;;;;5026814;28;20056;-75
2021/05/12 14:10:53;;;;;;;8.52;2.80;;;;;;;;;;5050967;28;20122;-75
2021/05/12 14:13:31;;;;;;;8.23;3.17;;;;;;;;;;5048345;28;20006;-78
2021/05/12 14:18:38;;;;;;;4.30;2.50;;;;;;;;;;5032961;28;20075;-77
2021/05/12 14:21:07;;;;;;;5.75;2.55;;;;;;;;;;5040104;28;20032;-76
2021/05/12 14:23:33;;;;;;;3.72;2.20;;;;;;;;;;5043779;28;20033;-77
2021/05/12 14:26:08;;;;;;;6.43;2.50;;;;;;;;;;5037868;28;20029;-75
2021/05/12 14:31:03;;;;;;;4.22;2.17;;;;;;;;;;5029565;28;20030;-74
2021/05/12 14:33:30;;;;;;;4.05;2.20;;;;;;;;;;5035224;28;20487;-78
2021/05/12 14:35:56;;;;;;;3.17;2.20;;;;;;;;;;5038213;28;20024;-74
2021/05/12 14:38:22;;;;;;;2.67;2.03;;;;;;;;;;5049213;28;20025;-77
2021/05/12 14:40:51;;;;;;;4.97;2.47;;;;;;;;;;5044525;28;20128;-76
2021/05/12 14:43:18;;;;;;;4.28;2.38;;;;;;;;;;5047908;28;20040;-77
2021/05/12 14:45:44;;;;;;;3.28;2.00;;;;;;;;;;5040291;28;20021;-76
2021/05/12 14:48:17;;;;;;;3.40;2.20;;;;;;;;;;5047081;28;20028;-78
2021/05/12 14:50:43;;;;;;;3.57;2.20;;;;;;;;;;5037575;28;20020;-75
2021/05/12 14:53:22;;;;;;;2.90;2.08;;;;;;;;;;5035595;28;20026;-75
2021/05/12 14:58:49;;;;;;;3.22;2.20;;;;;;;;;;5051390;28;20071;-72
2021/05/12 15:08:55;;;;;;;4.18;2.20;;;;;;;;;;5032897;28;20399;-69
2021/05/12 15:11:21;;;;;;;4.30;2.00;;;;;;;;;;5038573;28;20032;-73
2021/05/12 15:13:48;;;;;;;3.90;1.95;;;;;;;;;;5037138;28;20048;-72
2021/05/12 15:16:14;;;;;;;3.65;2.10;;;;;;;;;;5039666;28;20049;-71
2021/05/12 15:18:40;;;;;;;2.97;1.98;;;;;;;;;;5040906;28;20037;-70
2021/05/12 15:21:08;;;;;;;5.35;2.30;;;;;;;;;;5034934;28;20033;-72